createdAt,value
2022-10-22T00:00:41.392Z,7.01
2022-10-22T00:03:28.752Z,7.09
2022-10-22T00:05:55.928Z,7.30
2022-10-22T00:08:23.430Z,7.24
2022-10-22T00:10:50.651Z,7.27
2022-10-22T00:13:18.045Z,7.29
2022-10-22T00:15:45.185Z,7.20
2022-10-22T00:18:12.614Z,6.99
2022-10-22T00:20:39.946Z,6.99
2022-10-22T00:23:07.343Z,7.01
2022-10-22T00:25:36.077Z,7.06
2022-10-22T00:28:04.169Z,6.94
2022-10-22T00:30:31.397Z,6.93
2022-10-22T00:32:58.797Z,6.99
2022-10-22T00:35:25.994Z,6.94
2022-10-22T00:37:53.328Z,7.16
2022-10-22T00:40:20.710Z,7.13
2022-10-22T00:42:48.064Z,7.05
2022-10-22T00:45:19.407Z,7.05
2022-10-22T00:48:01.662Z,7.05
2022-10-22T00:50:58.025Z,7.00
2022-10-22T00:53:57.162Z,7.07
2022-10-22T00:56:24.813Z,6.99
2022-10-22T00:59:03.960Z,7.05
2022-10-22T01:01:32.502Z,7.02
2022-10-22T01:04:00.735Z,6.95
2022-10-22T01:06:31.083Z,6.99
2022-10-22T01:09:09.066Z,7.02
2022-10-22T01:12:04.761Z,7.11
2022-10-22T01:14:50.528Z,7.20
2022-10-22T01:17:30.601Z,7.12
2022-10-22T01:21:00.257Z,7.03
2022-10-22T01:24:08.375Z,6.85
2022-10-22T01:26:41.215Z,6.89
2022-10-22T01:29:33.027Z,6.84
2022-10-22T01:32:04.860Z,6.75
2022-10-22T01:34:33.525Z,6.71
2022-10-22T01:37:03.150Z,6.81
2022-10-22T01:39:31.442Z,6.64
2022-10-22T01:41:58.861Z,6.66
2022-10-22T01:44:33.574Z,6.69
2022-10-22T01:47:28.534Z,6.70
2022-10-22T01:50:31.204Z,6.60
2022-10-22T01:53:11.725Z,6.71
2022-10-22T01:55:57.384Z,6.77
2022-10-22T01:58:49.232Z,6.52
2022-10-22T02:01:55.212Z,6.55
2022-10-22T02:04:48.621Z,6.68
2022-10-22T02:07:20.005Z,6.56
2022-10-22T02:09:49.343Z,6.64
2022-10-22T02:12:19.992Z,6.52
2022-10-22T02:14:49.247Z,6.67
2022-10-22T02:17:22.005Z,6.66
2022-10-22T02:20:05.952Z,6.68
2022-10-22T02:22:33.895Z,6.72
2022-10-22T02:25:01.373Z,6.94
2022-10-22T02:27:40.660Z,6.78
2022-10-22T02:30:12.033Z,6.86
2022-10-22T02:32:45.692Z,6.98
2022-10-22T02:35:17.365Z,7.19
2022-10-22T02:37:45.720Z,6.99
2022-10-22T02:40:13.665Z,7.03
2022-10-22T02:42:43.035Z,7.13
2022-10-22T02:45:11.032Z,7.11
2022-10-22T02:47:38.220Z,7.05
2022-10-22T02:50:09.448Z,7.00
2022-10-22T02:52:38.621Z,7.04
2022-10-22T02:55:07.491Z,6.90
2022-10-22T02:57:34.717Z,7.13
2022-10-22T03:00:02.385Z,7.13
2022-10-22T03:02:29.604Z,7.16
2022-10-22T03:04:56.970Z,7.15
2022-10-22T03:07:24.103Z,7.15
2022-10-22T03:09:51.508Z,7.21
2022-10-22T03:12:18.745Z,7.32
2022-10-22T03:14:46.153Z,7.01
2022-10-22T03:17:14.091Z,7.14
2022-10-22T03:19:42.285Z,7.25
2022-10-22T03:22:23.695Z,7.24
2022-10-22T03:24:55.073Z,7.21
2022-10-22T03:27:23.294Z,7.31
2022-10-22T03:29:52.683Z,7.22
2022-10-22T03:32:20.039Z,7.24
2022-10-22T03:34:47.759Z,7.27
2022-10-22T03:37:15.100Z,7.25
2022-10-22T03:39:42.685Z,7.39
2022-10-22T03:42:09.907Z,7.33
2022-10-22T03:44:38.694Z,7.39
2022-10-22T03:47:06.545Z,7.36
2022-10-22T03:49:33.954Z,7.54
2022-10-22T03:52:14.861Z,7.39
2022-10-22T03:54:42.879Z,7.41
2022-10-22T03:57:10.869Z,7.52
2022-10-22T03:59:40.323Z,7.66
2022-10-22T04:02:07.824Z,7.66
2022-10-22T04:04:36.319Z,7.79
2022-10-22T04:07:04.388Z,7.66
2022-10-22T04:09:32.952Z,7.70
2022-10-22T04:12:01.226Z,7.71
2022-10-22T04:14:28.575Z,7.72
2022-10-22T04:16:55.735Z,7.83
2022-10-22T04:19:23.158Z,7.94
2022-10-22T04:21:50.326Z,7.92
2022-10-22T04:24:17.725Z,7.77
2022-10-22T04:26:44.949Z,7.71
2022-10-22T04:29:15.928Z,7.58
2022-10-22T04:31:43.761Z,7.52
2022-10-22T04:34:11.308Z,7.44
2022-10-22T04:36:38.500Z,7.36
2022-10-22T04:39:06.408Z,7.31
2022-10-22T04:41:36.192Z,7.39
2022-10-22T04:44:05.063Z,7.30
2022-10-22T04:46:34.450Z,7.74
2022-10-22T04:49:04.029Z,7.57
2022-10-22T04:51:31.966Z,7.20
2022-10-22T04:53:59.801Z,7.17
2022-10-22T04:56:29.802Z,7.04
2022-10-22T04:59:03.071Z,6.98
2022-10-22T05:01:37.090Z,6.93
2022-10-22T05:04:09.255Z,6.89
2022-10-22T05:06:37.281Z,7.01
2022-10-22T05:09:07.801Z,7.03
2022-10-22T05:11:41.731Z,7.25
2022-10-22T05:14:10.987Z,7.23
2022-10-22T05:16:38.539Z,7.26
2022-10-22T05:19:07.097Z,7.18
2022-10-22T05:21:34.793Z,7.14
2022-10-22T05:24:02.212Z,7.10
2022-10-22T05:26:30.278Z,7.11
2022-10-22T05:28:57.685Z,7.31
2022-10-22T05:31:25.028Z,7.53
2022-10-22T05:33:52.518Z,7.46
2022-10-22T05:36:21.996Z,7.46
2022-10-22T05:38:50.066Z,7.36
2022-10-22T05:41:23.156Z,7.26
2022-10-22T05:43:51.184Z,7.25
2022-10-22T05:46:22.789Z,7.26
2022-10-22T05:48:59.267Z,7.25
2022-10-22T05:51:29.086Z,7.41
2022-10-22T05:53:58.858Z,7.69
2022-10-22T05:56:27.919Z,7.81
2022-10-22T05:58:56.833Z,8.01
2022-10-22T06:01:27.524Z,7.93
2022-10-22T06:04:00.383Z,7.96
2022-10-22T06:06:44.280Z,8.09
2022-10-22T06:09:30.727Z,8.48
2022-10-22T06:11:58.618Z,8.44
2022-10-22T06:14:26.876Z,8.39
2022-10-22T06:16:54.720Z,8.40
2022-10-22T06:19:25.812Z,8.29
2022-10-22T06:21:53.686Z,8.29
2022-10-22T06:24:21.042Z,8.35
2022-10-22T06:26:52.062Z,8.60
2022-10-22T06:29:19.497Z,8.67
2022-10-22T06:31:46.706Z,8.79
2022-10-22T06:34:14.964Z,8.90
2022-10-22T06:36:44.995Z,8.93
2022-10-22T06:39:17.182Z,9.09
2022-10-22T06:41:44.440Z,8.87
2022-10-22T06:44:16.678Z,9.09
2022-10-22T06:46:44.194Z,9.08
2022-10-22T06:49:15.698Z,9.08
2022-10-22T06:51:43.406Z,9.18
2022-10-22T06:54:11.093Z,9.28
2022-10-22T06:56:38.338Z,9.22
2022-10-22T06:59:05.742Z,9.23
2022-10-22T07:01:35.089Z,9.22
2022-10-22T07:04:03.001Z,9.28
2022-10-22T07:06:30.569Z,9.12
2022-10-22T07:09:00.296Z,9.12
2022-10-22T07:11:31.015Z,9.30
2022-10-22T07:14:00.765Z,9.34
2022-10-22T07:16:32.058Z,9.21
2022-10-22T07:19:01.267Z,9.28
2022-10-22T07:21:29.314Z,9.29
2022-10-22T07:23:57.481Z,9.40
2022-10-22T07:26:25.506Z,9.09
2022-10-22T07:28:52.898Z,9.29
2022-10-22T07:31:20.282Z,9.46
2022-10-22T07:33:47.735Z,9.52
2022-10-22T07:36:19.289Z,9.58
2022-10-22T07:38:47.281Z,9.56
2022-10-22T07:41:16.276Z,9.50
2022-10-22T07:43:44.095Z,9.58
2022-10-22T07:46:11.502Z,9.79
2022-10-22T07:48:39.322Z,9.75
2022-10-22T07:51:07.002Z,9.91
2022-10-22T07:53:34.482Z,10.02
2022-10-22T07:56:01.784Z,9.84
2022-10-22T07:58:29.251Z,9.88
2022-10-22T08:00:58.300Z,9.89
2022-10-22T08:03:25.685Z,9.89
2022-10-22T08:05:54.186Z,9.64
2022-10-22T08:08:23.875Z,9.97
2022-10-22T08:10:53.296Z,10.09
2022-10-22T08:13:21.234Z,10.00
2022-10-22T08:15:49.730Z,10.18
2022-10-22T08:18:18.856Z,10.08
2022-10-22T08:20:46.759Z,10.15
2022-10-22T08:23:14.147Z,10.35
2022-10-22T08:25:41.324Z,10.07
2022-10-22T08:28:08.729Z,10.14
2022-10-22T08:30:38.661Z,10.15
2022-10-22T08:33:06.374Z,10.07
2022-10-22T08:35:33.814Z,10.09
2022-10-22T08:38:01.204Z,10.18
2022-10-22T08:40:38.218Z,10.35
2022-10-22T08:43:05.556Z,10.55
2022-10-22T08:45:53.365Z,10.77
2022-10-22T08:48:46.513Z,10.84
2022-10-22T08:51:19.260Z,10.86
2022-10-22T08:54:01.597Z,10.61
2022-10-22T08:56:30.265Z,10.68
2022-10-22T08:59:07.016Z,10.77
2022-10-22T09:01:38.697Z,10.78
2022-10-22T09:04:11.674Z,10.96
2022-10-22T09:06:41.115Z,11.14
2022-10-22T09:09:16.400Z,11.01
2022-10-22T09:11:46.950Z,11.24
2022-10-22T09:14:17.389Z,11.11
2022-10-22T09:17:21.723Z,11.26
2022-10-22T09:19:57.956Z,11.26
2022-10-22T09:22:51.005Z,11.47
2022-10-22T09:25:25.224Z,11.55
2022-10-22T09:27:58.271Z,11.48
2022-10-22T09:30:29.505Z,11.58
2022-10-22T09:33:13.826Z,11.52
2022-10-22T09:35:56.212Z,11.64
2022-10-22T09:38:26.969Z,11.79
2022-10-22T09:40:56.347Z,11.75
2022-10-22T09:43:23.905Z,12.01
2022-10-22T09:46:03.129Z,12.21
2022-10-22T09:48:39.667Z,12.26
2022-10-22T09:51:40.565Z,12.48
2022-10-22T09:54:38.626Z,12.36
2022-10-22T09:57:16.737Z,12.25
2022-10-22T09:59:45.545Z,12.05
2022-10-22T10:02:20.004Z,11.94
2022-10-22T10:04:56.543Z,11.93
2022-10-22T10:07:26.720Z,11.86
2022-10-22T10:09:54.528Z,11.80
2022-10-22T10:12:43.725Z,11.80
2022-10-22T10:15:38.401Z,11.86
2022-10-22T10:18:23.841Z,11.95
2022-10-22T10:21:26.650Z,12.18
2022-10-22T10:24:06.344Z,11.82
2022-10-22T10:27:07.085Z,11.99
2022-10-22T10:29:42.309Z,12.02
2022-10-22T10:32:31.510Z,11.92
2022-10-22T10:35:15.691Z,11.74
2022-10-22T10:37:52.176Z,11.96
2022-10-22T10:40:19.592Z,12.19
2022-10-22T10:42:56.607Z,12.44
2022-10-22T10:45:42.882Z,12.62
2022-10-22T10:48:43.436Z,12.51
2022-10-22T10:51:35.712Z,12.54
2022-10-22T10:54:16.445Z,12.58
2022-10-22T10:56:49.918Z,12.54
2022-10-22T11:00:04.582Z,12.72
2022-10-22T11:03:08.416Z,12.69
2022-10-22T11:05:57.996Z,12.88
2022-10-22T11:08:31.441Z,13.06
2022-10-22T11:11:07.821Z,13.05
2022-10-22T11:13:52.369Z,12.90
2022-10-22T11:16:32.428Z,12.65
2022-10-22T11:19:27.740Z,12.61
2022-10-22T11:22:15.843Z,12.68
2022-10-22T11:24:53.186Z,12.62
2022-10-22T11:27:23.439Z,12.25
2022-10-22T11:29:59.897Z,12.09
2022-10-22T11:32:28.344Z,12.29
2022-10-22T11:35:01.210Z,12.39
2022-10-22T11:37:35.703Z,12.17
2022-10-22T11:40:14.312Z,12.13
2022-10-22T11:42:47.990Z,12.11
2022-10-22T11:45:15.291Z,12.03
2022-10-22T11:48:09.802Z,12.10
2022-10-22T11:51:00.832Z,12.06
2022-10-22T11:53:34.691Z,11.94
2022-10-22T11:56:23.489Z,11.64
2022-10-22T11:58:53.943Z,11.50
2022-10-22T12:01:27.481Z,11.59
2022-10-22T12:03:57.649Z,11.59
2022-10-22T12:06:26.897Z,11.64
2022-10-22T12:08:57.311Z,11.71
2022-10-22T12:11:47.810Z,11.53
2022-10-22T12:14:20.579Z,11.70
2022-10-22T12:16:56.616Z,11.89
2022-10-22T12:19:27.053Z,11.97
2022-10-22T12:22:06.472Z,11.93
2022-10-22T12:24:40.718Z,11.95
2022-10-22T12:27:26.224Z,11.71
2022-10-22T12:29:58.946Z,11.78
2022-10-22T12:32:38.703Z,11.64
2022-10-22T12:35:09.135Z,11.68
2022-10-22T12:37:37.881Z,11.64
2022-10-22T12:40:26.550Z,11.68
2022-10-22T12:42:57.004Z,11.64
2022-10-22T12:45:28.367Z,11.57
2022-10-22T12:47:59.050Z,11.52
2022-10-22T12:50:37.644Z,11.56
2022-10-22T12:53:32.157Z,11.60
2022-10-22T12:56:07.424Z,11.72
2022-10-22T12:59:00.133Z,11.84
2022-10-22T13:01:29.940Z,11.71
2022-10-22T13:04:18.355Z,11.51
2022-10-22T13:06:47.959Z,11.61
2022-10-22T13:09:23.796Z,11.62
2022-10-22T13:12:04.828Z,11.72
2022-10-22T13:14:34.948Z,11.57
2022-10-22T13:17:09.993Z,11.71
2022-10-22T13:20:02.140Z,11.73
2022-10-22T13:22:40.835Z,11.73
2022-10-22T13:25:17.391Z,11.89
2022-10-22T13:27:45.415Z,11.81
2022-10-22T13:30:25.223Z,11.88
2022-10-22T13:32:56.018Z,11.99
2022-10-22T13:35:30.080Z,11.81
2022-10-22T13:37:57.364Z,11.72
2022-10-22T13:40:25.254Z,11.67
2022-10-22T13:42:52.452Z,11.62
2022-10-22T13:45:20.250Z,11.74
2022-10-22T13:47:53.586Z,11.93
2022-10-22T13:50:21.757Z,11.83
2022-10-22T13:52:55.530Z,12.16
2022-10-22T13:55:29.146Z,12.04
2022-10-22T14:00:58.396Z,11.91
2022-10-22T14:03:33.080Z,11.89
2022-10-22T14:06:00.743Z,11.81
2022-10-22T14:08:28.301Z,11.87
2022-10-22T14:10:56.050Z,11.85
2022-10-22T14:13:23.396Z,11.94
2022-10-22T14:15:52.413Z,11.85
2022-10-22T14:18:26.382Z,11.81
2022-10-22T14:21:00.168Z,11.89
2022-10-22T14:23:29.820Z,11.92
2022-10-22T14:25:57.795Z,11.98
2022-10-22T14:28:25.211Z,12.14
2022-10-22T14:30:55.348Z,12.01
2022-10-22T14:33:32.055Z,11.96
2022-10-22T14:36:01.144Z,11.98
2022-10-22T14:38:29.353Z,11.81
2022-10-22T14:40:59.408Z,11.81
2022-10-22T14:43:29.895Z,11.77
2022-10-22T14:45:57.869Z,11.83
2022-10-22T14:48:25.092Z,11.96
2022-10-22T14:50:52.577Z,12.02
2022-10-22T14:53:19.864Z,12.14
2022-10-22T14:55:49.218Z,12.07
2022-10-22T14:58:16.597Z,12.07
2022-10-22T15:00:44.291Z,12.14
2022-10-22T15:03:12.049Z,12.08
2022-10-22T15:05:44.928Z,11.98
2022-10-22T15:08:14.245Z,11.90
2022-10-22T15:10:41.941Z,11.82
2022-10-22T15:13:09.519Z,11.75
2022-10-22T15:15:40.387Z,11.70
2022-10-22T15:18:07.693Z,11.76
2022-10-22T15:20:35.178Z,11.74
2022-10-22T15:23:02.721Z,11.76
2022-10-22T15:25:30.581Z,11.64
2022-10-22T15:28:00.786Z,11.81
2022-10-22T15:30:32.132Z,11.82
2022-10-22T15:32:59.307Z,11.83
2022-10-22T15:35:28.565Z,11.74
2022-10-22T15:37:55.771Z,11.76
2022-10-22T15:40:23.242Z,11.80
2022-10-22T15:42:50.751Z,11.80
2022-10-22T15:45:18.117Z,11.96
2022-10-22T15:47:47.597Z,11.92
2022-10-22T15:50:15.825Z,11.92
2022-10-22T15:52:42.973Z,11.95
2022-10-22T15:57:45.548Z,11.91
2022-10-22T16:00:14.054Z,11.96
2022-10-22T16:02:42.877Z,11.93
2022-10-22T16:05:10.225Z,12.00
2022-10-22T16:07:37.775Z,11.98
2022-10-22T16:10:07.679Z,11.94
2022-10-22T16:12:36.133Z,11.89
2022-10-22T16:15:03.814Z,11.83
2022-10-22T16:17:30.973Z,11.77
2022-10-22T16:19:58.488Z,11.82
2022-10-22T16:22:25.715Z,11.83
2022-10-22T16:24:53.054Z,11.88
2022-10-22T16:27:20.229Z,11.92
2022-10-22T16:29:47.605Z,11.88
2022-10-22T16:32:16.554Z,11.92
2022-10-22T16:34:43.997Z,11.88
2022-10-22T16:37:11.312Z,11.99
2022-10-22T16:39:38.802Z,11.92
2022-10-22T16:42:06.559Z,11.86
2022-10-22T16:44:34.086Z,11.84
2022-10-22T16:47:01.213Z,11.87
2022-10-22T16:49:29.224Z,11.85
2022-10-22T16:51:56.435Z,11.85
2022-10-22T16:54:23.800Z,11.90
2022-10-22T16:56:51.120Z,11.84
2022-10-22T16:59:18.489Z,11.84
2022-10-22T17:01:45.654Z,11.88
2022-10-22T17:04:13.194Z,11.85
2022-10-22T17:06:40.339Z,11.97
2022-10-22T17:09:07.955Z,12.02
2022-10-22T17:11:37.035Z,12.01
2022-10-22T17:14:07.006Z,11.96
2022-10-22T17:16:34.351Z,11.90
2022-10-22T17:19:03.896Z,11.88
2022-10-22T17:21:31.358Z,11.89
2022-10-22T17:23:58.925Z,11.91
2022-10-22T17:26:30.532Z,11.93
2022-10-22T17:28:58.251Z,11.89
2022-10-22T17:31:27.940Z,11.91
2022-10-22T17:33:56.699Z,11.95
2022-10-22T17:36:24.812Z,11.97
2022-10-22T17:38:55.001Z,11.99
2022-10-22T17:41:25.021Z,11.91
2022-10-22T17:43:52.757Z,11.99
2022-10-22T17:46:25.266Z,12.05
2022-10-22T17:49:00.595Z,12.14
2022-10-22T17:51:29.976Z,12.06
2022-10-22T17:53:57.827Z,12.02
2022-10-22T17:56:32.666Z,12.06
2022-10-22T17:59:00.148Z,12.07
2022-10-22T18:01:32.229Z,12.01
2022-10-22T18:04:02.987Z,11.99
2022-10-22T18:06:31.121Z,11.97
2022-10-22T18:08:58.590Z,11.96
2022-10-22T18:11:27.950Z,11.99
2022-10-22T18:13:57.228Z,11.98
2022-10-22T18:16:25.871Z,11.97
2022-10-22T18:18:55.378Z,12.06
2022-10-22T18:21:25.602Z,12.13
2022-10-22T18:23:53.604Z,12.12
2022-10-22T18:26:25.836Z,12.20
2022-10-22T18:28:56.373Z,12.16
2022-10-22T18:31:25.377Z,12.22
2022-10-22T18:33:55.411Z,12.28
2022-10-22T18:36:25.991Z,12.27
2022-10-22T18:38:58.983Z,12.22
2022-10-22T18:41:27.124Z,12.15
2022-10-22T18:43:57.232Z,12.22
2022-10-22T18:46:25.567Z,12.11
2022-10-22T18:48:57.842Z,12.16
2022-10-22T18:51:26.642Z,12.24
2022-10-22T18:54:05.988Z,12.17
2022-10-22T18:56:43.967Z,12.13
2022-10-22T18:59:20.279Z,12.08
2022-10-22T19:01:48.081Z,12.12
2022-10-22T19:04:15.767Z,12.09
2022-10-22T19:06:45.576Z,12.17
2022-10-22T19:09:16.951Z,12.14
2022-10-22T19:11:45.499Z,12.10
2022-10-22T19:14:14.947Z,12.11
2022-10-22T19:16:42.221Z,12.13
2022-10-22T19:19:09.783Z,12.07
2022-10-22T19:21:38.424Z,12.00
2022-10-22T19:24:06.740Z,12.00
2022-10-22T19:26:34.350Z,12.06
2022-10-22T19:29:02.329Z,12.09
2022-10-22T19:31:31.368Z,12.09
2022-10-22T19:34:00.708Z,12.13
2022-10-22T19:36:30.152Z,12.05
2022-10-22T19:38:58.266Z,12.01
2022-10-22T19:41:27.450Z,12.02
2022-10-22T19:43:55.949Z,12.03
2022-10-22T19:46:23.982Z,12.04
2022-10-22T19:48:52.866Z,12.16
2022-10-22T19:51:22.571Z,12.13
2022-10-22T19:53:56.506Z,12.12
2022-10-22T19:56:23.699Z,12.04
2022-10-22T19:58:51.156Z,12.27
2022-10-22T20:01:19.322Z,12.21
2022-10-22T20:03:47.164Z,12.30
2022-10-22T20:06:16.411Z,12.27
2022-10-22T20:08:44.098Z,12.15
2022-10-22T20:11:23.159Z,12.16
2022-10-22T20:13:52.360Z,12.29
2022-10-22T20:16:26.044Z,12.27
2022-10-22T20:18:53.408Z,12.29
2022-10-22T20:21:22.004Z,12.25
2022-10-22T20:23:53.249Z,12.25
2022-10-22T20:26:21.364Z,12.31
2022-10-22T20:28:48.739Z,12.42
2022-10-22T20:31:19.120Z,12.29
2022-10-22T20:33:47.973Z,12.26
2022-10-22T20:36:22.962Z,12.30
2022-10-22T20:38:51.412Z,12.31
2022-10-22T20:41:23.451Z,12.25
2022-10-22T20:43:51.784Z,12.27
2022-10-22T20:46:23.119Z,12.24
2022-10-22T20:48:52.413Z,12.20
2022-10-22T20:51:20.141Z,12.17
2022-10-22T20:53:47.653Z,12.16
2022-10-22T20:56:15.077Z,12.34
2022-10-22T20:58:48.005Z,12.27
2022-10-22T21:01:24.181Z,12.21
2022-10-22T21:03:52.860Z,12.15
2022-10-22T21:06:23.174Z,12.19
2022-10-22T21:08:51.841Z,12.25
2022-10-22T21:11:20.082Z,12.13
2022-10-22T21:13:47.454Z,12.26
2022-10-22T21:16:17.082Z,12.22
2022-10-22T21:18:45.248Z,12.28
2022-10-22T21:21:12.945Z,12.31
2022-10-22T21:23:40.494Z,12.30
2022-10-22T21:26:07.851Z,12.22
2022-10-22T21:28:37.054Z,12.24
2022-10-22T21:31:06.366Z,12.23
2022-10-22T21:33:39.189Z,12.25
2022-10-22T21:36:09.156Z,12.18
2022-10-22T21:38:37.772Z,12.13
2022-10-22T21:41:07.132Z,12.12
2022-10-22T21:43:36.515Z,12.16
2022-10-22T21:46:09.218Z,12.21
2022-10-22T21:48:37.918Z,12.37
2022-10-22T21:51:10.138Z,12.32
2022-10-22T21:53:38.080Z,12.17
2022-10-22T21:56:06.004Z,12.08
2022-10-22T21:58:37.077Z,12.14
2022-10-22T22:01:04.630Z,12.07
2022-10-22T22:03:32.106Z,12.10
2022-10-22T22:06:06.366Z,11.97
2022-10-22T22:08:34.262Z,11.99
2022-10-22T22:11:04.297Z,12.00
2022-10-22T22:13:32.821Z,11.95
2022-10-22T22:16:22.410Z,11.85
2022-10-22T22:18:53.228Z,11.95
2022-10-22T22:21:21.492Z,11.89
2022-10-22T22:23:49.929Z,11.96
2022-10-22T22:26:25.258Z,11.97
2022-10-22T22:28:56.235Z,12.13
2022-10-22T22:31:27.195Z,12.12
2022-10-22T22:34:01.761Z,12.13
2022-10-22T22:36:33.757Z,12.16
2022-10-22T22:39:01.551Z,12.11
2022-10-22T22:41:28.787Z,11.97
2022-10-22T22:46:28.294Z,12.06
2022-10-22T22:48:55.666Z,11.95
2022-10-22T22:51:23.291Z,11.93
2022-10-22T22:53:51.235Z,12.06
2022-10-22T22:56:24.188Z,11.97
2022-10-22T22:58:51.711Z,12.06
2022-10-22T23:01:26.111Z,12.01
2022-10-22T23:03:57.605Z,12.08
2022-10-22T23:06:31.100Z,12.07
2022-10-22T23:08:59.023Z,12.07
2022-10-22T23:11:27.814Z,12.17
2022-10-22T23:13:58.590Z,12.08
2022-10-22T23:16:29.437Z,12.24
2022-10-22T23:18:57.933Z,12.19
2022-10-22T23:21:30.921Z,12.16
2022-10-22T23:24:01.549Z,12.14
2022-10-22T23:26:31.717Z,12.26
2022-10-22T23:29:08.565Z,12.23
2022-10-22T23:31:35.729Z,12.22
2022-10-22T23:34:03.175Z,12.24
2022-10-22T23:36:30.305Z,12.09
2022-10-22T23:38:57.805Z,12.12
2022-10-22T23:41:24.949Z,12.00
2022-10-22T23:43:52.324Z,12.06
2022-10-22T23:46:19.452Z,12.05
2022-10-22T23:48:46.875Z,12.12
2022-10-22T23:51:16.591Z,12.08
2022-10-22T23:53:45.192Z,12.16
2022-10-22T23:56:18.293Z,12.25
2022-10-22T23:58:45.678Z,12.20
